Lexington, KY (40517)

6:33 AM EST on January 16, 2018 (GMT -0500)
Belleau Wood/Veteran's Park | | Change Station
Active Advisory: Winter Weather Advisory

Elev 978 ft 37.97 °N, 84.51 °W | Updated 1 second ago

Snow
Snow
14.9 °F
Feels Like 15 °F
N
0.0
Wind Variable Wind from WNW
Gusts 2.0 mph

Today
High -- | Low -- °F
--% Chance of Precip.
Yesterday
High -- | Low -- °F
Precip. -- in
Pressure 30.46 in
Visibility 3.0 miles
Clouds Scattered Clouds 3400 ft
Overcast 6000 ft
Windchill 15 °F
Dew Point 12 °F
Humidity 86%
Rainfall 0.00 in
Snow Depth Not available.
7:52 AM 5:43 PM
Waning Crescent, 0% visible
SPECI KLEX 161121Z 30005KT 3SM -SN SCT034 OVC060 M10/M13 A3046 RMK AO2 P0000 T11001133 $
Pressure 30.46 in
Visibility 3.0 miles
Clouds Scattered Clouds 3400 ft
Overcast 6000 ft
Windchill 15 °F
Dew Point 12 °F
Humidity 86%
Rainfall 0.00 in
Snow Depth Not available.
7:52 AM 5:43 PM
Waning Crescent, 0% visible
SPECI KLEX 161121Z 30005KT 3SM -SN SCT034 OVC060 M10/M13 A3046 RMK AO2 P0000 T11001133 $

Get Your Daily Forecast Email!

Thanks for signing up!

Be on the lookout for a verification email in your inbox.

You'll start receiving severe weather alerts in your inbox..

×

10-Day Weather Forecast

Almanac

Astronomy

Jan. 16, 2018 Rise Set
Actual Time
Civil Twilight
Nautical Twilight
Astronomical Twilight
Moon
Length of Visible Light
Length of Day
Tomorrow will be .
, % of the Moon is Illuminated

Today's Extremes

State Highs State Lows

Community

WunderPhotos

Category 6

Welcome to Category 6. This is the collective home for Weather Underground's featured writeups by Dr. Jeff Masters (right), Bob Henson (left), Chris Burt, and other regular contributors.

Nearby

Air Quality

  Air Quality AQ Index Pollutant
Not available.

Snow Depth

Station Depth Elevation

Earthquake Activity

City Distance Mag. Time & Date
Minimum magnitude displayed is 2.5.

Coastal Water Temperatures

Place Temperature

Stations

Nearby Weather Stations

Station Location Temp. Windchill Dew Point Humidity Wind Precip. Elev Updated Type
                   

Watches & Warnings

Winter Weather Advisory
Issued: 3:59 AM CST Jan. 16, 2018 – National Weather Service

... Winter Weather Advisory remains in effect until 1 PM EST /noon
CST/ this afternoon...

* what... snow occurring. Plan on slippery Road conditions,
including during the morning commute. Additional snow
accumulations up to 2 inches are expected.

* Where... portions of east central Kentucky, north central
Kentucky and south central Kentucky.

* When... until 1 PM today.

* Additional details... be prepared for reduced visibilities at
times.

Precautionary/preparedness actions...

A Winter Weather Advisory for snow means periods of snow will
cause primarily travel difficulties. Be prepared for snow covered
roads and limited visibilities, and use caution while driving.